Time;durP1;ratioP1;P1;durP2;ratioP2;P2;SDS_P1;SDS_P2;PMS_P1;PMS_P2;Temp;Humidity;BMP_temperature;BMP_pressure;BME280_temperature;BME280_humidity;BME280_pressure;Samples;Min_cycle;Max_cycle;Signal;HPM_P1;HPM_P2
2023/01/27 00:02:16;;;;;;;21.63;5.20;;;;;;;18.19;50.11;100674.78;5049736;28;20183;-61
2023/01/27 00:04:41;;;;;;;13.30;5.10;;;;;;;18.21;49.83;100669.50;5062815;28;20195;-61
2023/01/27 00:07:07;;;;;;;12.97;5.00;;;;;;;18.16;50.01;100666.94;5051467;28;20294;-61
2023/01/27 00:09:32;;;;;;;10.57;4.33;;;;;;;18.18;49.90;100664.56;5070484;28;20600;-61
2023/01/27 00:14:41;;;;;;;12.53;4.43;;;;;;;18.10;49.81;100674.13;5070092;28;20190;-61
2023/01/27 00:17:07;;;;;;;12.87;4.50;;;;;;;18.16;50.05;100668.97;5063409;28;20800;-61
2023/01/27 00:19:32;;;;;;;11.43;4.87;;;;;;;18.19;49.63;100666.22;5081130;28;20171;-61
2023/01/27 00:24:42;;;;;;;9.97;4.87;;;;;;;18.12;50.10;100662.34;5069955;28;20209;-61
2023/01/27 00:27:08;;;;;;;10.83;4.27;;;;;;;18.12;50.05;100666.00;5050830;28;20468;-60
2023/01/27 00:29:35;;;;;;;12.97;4.37;;;;;;;18.13;50.22;100664.00;5064746;28;20190;-61
2023/01/27 00:34:44;;;;;;;11.80;4.50;;;;;;;18.11;50.01;100664.34;5064597;28;20600;-61
2023/01/27 00:37:10;;;;;;;9.30;4.10;;;;;;;18.07;50.61;100666.28;5051286;28;20390;-61
2023/01/27 00:39:35;;;;;;;11.53;4.93;;;;;;;18.12;50.27;100663.16;5066583;28;20183;-61
2023/01/27 00:42:00;;;;;;;8.87;3.90;;;;;;;18.10;50.43;100664.72;5067961;28;20185;-61
2023/01/27 00:44:26;;;;;;;15.13;4.80;;;;;;;18.09;50.43;100661.06;5042933;28;20175;-61
2023/01/27 00:46:51;;;;;;;10.33;4.37;;;;;;;18.08;50.22;100670.81;5063128;28;20199;-61
2023/01/27 00:49:17;;;;;;;6.10;3.80;;;;;;;18.09;50.28;100672.47;5067260;28;20182;-61
2023/01/27 00:51:42;;;;;;;8.80;4.70;;;;;;;18.09;50.39;100668.78;5066826;28;20240;-61
2023/01/27 00:54:08;;;;;;;7.97;3.60;;;;;;;18.03;50.71;100659.69;5066935;28;20237;-61
2023/01/27 00:56:33;;;;;;;9.13;4.00;;;;;;;18.03;50.68;100653.13;5068051;28;20155;-61
2023/01/27 00:58:59;;;;;;;8.17;3.80;;;;;;;18.05;50.29;100660.13;5068667;28;20174;-61
2023/01/27 01:01:24;;;;;;;10.93;4.60;;;;;;;18.06;50.55;100663.81;5069529;28;20165;-61
2023/01/27 01:03:50;;;;;;;7.50;3.87;;;;;;;18.02;50.76;100658.00;5077594;28;20200;-61
2023/01/27 01:06:15;;;;;;;9.70;4.23;;;;;;;18.02;50.87;100652.28;5089067;28;20193;-61
2023/01/27 01:08:41;;;;;;;6.43;3.70;;;;;;;18.01;50.46;100644.91;5070902;28;20210;-61
2023/01/27 01:11:08;;;;;;;11.40;4.90;;;;;;;18.03;50.75;100651.09;5068565;28;20255;-61
2023/01/27 01:13:33;;;;;;;7.33;4.07;;;;;;;18.04;50.94;100655.63;5047588;28;20300;-61
2023/01/27 01:16:09;;;;;;;11.83;4.10;;;;;;;18.04;50.84;100647.03;5048717;28;20453;-61
2023/01/27 01:18:34;;;;;;;12.23;3.50;;;;;;;18.05;50.63;100648.69;5049026;28;20171;-61
2023/01/27 01:21:00;;;;;;;7.53;3.30;;;;;;;17.98;51.23;100642.81;5058023;28;20490;-61
2023/01/27 01:23:25;;;;;;;6.87;3.47;;;;;;;17.93;50.93;100642.25;5068906;28;20168;-61
2023/01/27 01:25:55;;;;;;;10.97;4.13;;;;;;;17.96;51.07;100659.47;5063991;28;20669;-61
2023/01/27 01:28:20;;;;;;;6.63;4.00;;;;;;;17.97;50.87;100663.97;5048876;28;20164;-61
2023/01/27 01:30:45;;;;;;;7.60;4.37;;;;;;;17.98;50.66;100654.25;5031329;28;20410;-61
2023/01/27 01:33:11;;;;;;;8.67;4.27;;;;;;;17.99;50.86;100655.91;5048549;28;20585;-62
2023/01/27 01:35:37;;;;;;;10.60;4.17;;;;;;;17.98;51.07;100653.41;5050408;28;20183;-61
2023/01/27 01:38:02;;;;;;;6.37;3.70;;;;;;;17.99;51.03;100655.91;5047921;28;20211;-61
2023/01/27 01:40:27;;;;;;;7.90;3.80;;;;;;;17.96;50.95;100650.09;5050122;28;20257;-61
2023/01/27 01:42:57;;;;;;;5.00;3.27;;;;;;;17.93;51.24;100645.94;5050014;28;20211;-61
2023/01/27 01:45:32;;;;;;;5.50;3.53;;;;;;;17.95;51.06;100639.84;5047275;28;20168;-61
2023/01/27 01:48:38;;;;;;;6.20;3.60;;;;;;;17.95;51.29;100637.81;5053193;28;20460;-61
2023/01/27 01:51:33;;;;;;;8.30;3.50;;;;;;;17.91;51.09;100631.19;5055626;28;20521;-61
2023/01/27 01:54:11;;;;;;;6.20;3.33;;;;;;;17.88;51.38;100629.09;5051828;28;20410;-61
2023/01/27 01:56:48;;;;;;;10.73;3.30;;;;;;;17.94;51.54;100624.75;5062204;28;20430;-61
2023/01/27 01:59:31;;;;;;;6.33;3.33;;;;;;;17.90;51.28;100623.81;5031019;28;20402;-61
2023/01/27 02:01:57;;;;;;;5.93;3.10;;;;;;;17.91;51.14;100625.47;5032683;28;20442;-61
2023/01/27 02:04:24;;;;;;;6.13;3.30;;;;;;;17.87;51.34;100624.56;5061991;28;20793;-61
2023/01/27 02:07:06;;;;;;;6.80;2.70;;;;;;;17.89;51.30;100616.47;5054522;28;20945;-61
2023/01/27 02:09:31;;;;;;;7.47;4.17;;;;;;;17.85;51.43;100615.53;5073946;28;20840;-62
2023/01/27 02:11:57;;;;;;;13.53;3.70;;;;;;;17.84;51.35;100624.47;5074197;28;20465;-61
2023/01/27 02:14:34;;;;;;;5.53;3.33;;;;;;;17.87;51.69;100613.16;5051040;28;20955;-61
2023/01/27 02:17:00;;;;;;;6.10;3.13;;;;;;;17.89;51.49;100616.47;5053359;28;20195;-61
2023/01/27 02:19:38;;;;;;;7.77;3.50;;;;;;;17.88;51.46;100614.81;5033342;28;20452;-61
2023/01/27 02:22:03;;;;;;;5.70;3.50;;;;;;;17.87;51.41;100624.56;5071943;28;20181;-61
2023/01/27 02:24:32;;;;;;;7.30;3.50;;;;;;;17.85;51.34;100621.25;5027660;28;21001;-61
2023/01/27 02:26:58;;;;;;;4.63;2.93;;;;;;;17.82;51.50;100624.84;5033633;28;20201;-61
2023/01/27 02:29:23;;;;;;;7.03;3.23;;;;;;;17.87;51.37;100624.56;5052140;28;21237;-61
2023/01/27 02:31:49;;;;;;;5.23;3.40;;;;;;;17.81;51.69;100623.16;5035996;28;20192;-61
2023/01/27 02:34:16;;;;;;;5.60;3.20;;;;;;;17.87;52.29;100624.56;5067453;28;20224;-61
2023/01/27 02:36:49;;;;;;;6.77;3.97;;;;;;;17.87;51.61;100629.44;5060014;28;20589;-60
2023/01/27 02:39:15;;;;;;;5.17;2.87;;;;;;;17.86;51.25;100627.81;5036604;28;21002;-61
2023/01/27 02:41:46;;;;;;;6.17;3.27;;;;;;;17.82;51.35;100624.00;5051039;28;20521;-61
2023/01/27 02:44:12;;;;;;;6.50;3.30;;;;;;;17.82;51.72;100630.56;5050572;28;20430;-61
2023/01/27 02:46:37;;;;;;;7.53;3.50;;;;;;;17.83;51.68;100623.66;5050992;28;20461;-62
2023/01/27 02:49:02;;;;;;;8.83;4.10;;;;;;;17.85;51.81;100620.44;5051547;28;20195;-61
2023/01/27 02:51:28;;;;;;;4.90;3.00;;;;;;;17.84;51.66;100630.19;5039685;28;20187;-61
2023/01/27 02:53:53;;;;;;;5.83;3.40;;;;;;;17.84;51.72;100628.16;5050593;28;20172;-61
2023/01/27 02:56:19;;;;;;;6.50;3.20;;;;;;;17.88;51.26;100616.81;5053181;28;20187;-61
2023/01/27 02:58:44;;;;;;;5.73;3.03;;;;;;;17.84;51.01;100625.31;5056317;28;20187;-61
2023/01/27 03:01:10;;;;;;;7.30;3.17;;;;;;;17.85;51.49;100621.25;5051029;28;20187;-61
2023/01/27 03:03:35;;;;;;;6.50;2.83;;;;;;;17.83;51.41;100611.38;5067829;28;20187;-61
2023/01/27 03:06:00;;;;;;;5.23;3.27;;;;;;;17.84;51.63;100618.75;5089847;28;20303;-61
2023/01/27 03:08:26;;;;;;;4.20;2.90;;;;;;;17.78;51.56;100615.34;5084321;28;20179;-61
2023/01/27 03:10:52;;;;;;;5.60;3.60;;;;;;;17.84;51.37;100613.03;5070801;28;20241;-61
2023/01/27 03:13:24;;;;;;;5.80;3.43;;;;;;;17.80;51.50;100610.09;5069968;28;20241;-61
2023/01/27 03:18:33;;;;;;;5.70;3.03;;;;;;;17.83;51.74;100625.66;5049771;28;20428;-62
2023/01/27 03:21:00;;;;;;;8.97;3.33;;;;;;;17.78;51.66;100623.94;5039881;28;20906;-61
2023/01/27 03:23:26;;;;;;;6.80;3.53;;;;;;;17.80;51.46;100617.84;5053951;28;20191;-61
2023/01/27 03:25:52;;;;;;;6.67;3.70;;;;;;;17.80;51.38;100620.72;5069137;28;20425;-61
2023/01/27 03:28:17;;;;;;;7.13;3.43;;;;;;;17.75;51.83;100621.78;5067557;28;20482;-61
2023/01/27 03:30:42;;;;;;;5.27;3.20;;;;;;;17.74;51.61;100619.31;5067575;28;20183;-61
2023/01/27 03:33:08;;;;;;;5.53;3.50;;;;;;;17.78;51.80;100618.22;5050184;28;20203;-61
2023/01/27 03:35:37;;;;;;;4.97;2.63;;;;;;;17.79;51.70;100625.56;5050547;28;20183;-61
2023/01/27 03:46:19;;;;;;;7.30;3.07;;;;;;;17.80;51.70;100635.00;5071892;28;20491;-61
2023/01/27 03:48:50;;;;;;;5.50;3.20;;;;;;;17.76;51.93;100628.34;5068911;28;20499;-61
2023/01/27 03:51:15;;;;;;;4.40;2.80;;;;;;;17.75;51.61;100626.69;5065424;28;20463;-61
2023/01/27 03:53:41;;;;;;;9.13;3.20;;;;;;;17.72;51.80;100630.28;5070044;28;20847;-61
2023/01/27 03:56:06;;;;;;;4.80;3.00;;;;;;;17.76;51.73;100634.88;5048272;28;20191;-61
2023/01/27 03:58:33;;;;;;;3.77;2.50;;;;;;;17.75;51.68;100630.38;5081817;28;20174;-61
2023/01/27 04:01:08;;;;;;;5.80;2.83;;;;;;;17.74;51.38;100637.28;5072339;28;20163;-61
2023/01/27 04:09:10;;;;;;;4.20;2.50;;;;;;;17.76;51.55;100643.44;5057652;28;21360;-61
2023/01/27 04:11:54;;;;;;;4.13;2.43;;;;;;;17.77;51.83;100639.41;5065363;28;20409;-61
2023/01/27 04:14:40;;;;;;;3.97;2.70;;;;;;;17.74;51.77;100647.84;5068500;28;20423;-61
2023/01/27 04:17:16;;;;;;;4.13;2.57;;;;;;;17.75;51.47;100638.94;5068328;28;20413;-61
2023/01/27 04:19:42;;;;;;;5.83;3.00;;;;;;;17.75;51.81;100646.69;5068619;28;20416;-61
2023/01/27 04:22:09;;;;;;;5.50;3.37;;;;;;;17.75;51.34;100650.34;5058525;28;20429;-61
2023/01/27 04:24:34;;;;;;;6.07;2.80;;;;;;;17.74;51.63;100653.56;5048632;28;20512;-61
2023/01/27 04:27:04;;;;;;;3.93;2.60;;;;;;;17.73;51.44;100646.19;5051744;28;20457;-61
2023/01/27 04:29:32;;;;;;;4.63;2.50;;;;;;;17.69;51.73;100645.28;5069230;28;20497;-61
2023/01/27 04:31:57;;;;;;;4.10;2.67;;;;;;;17.69;51.91;100648.97;5069192;28;20529;-61
2023/01/27 04:34:24;;;;;;;5.37;3.13;;;;;;;17.72;51.71;100651.09;5053562;28;20469;-61
2023/01/27 04:36:49;;;;;;;3.67;2.30;;;;;;;17.73;51.72;100652.75;5054296;28;20190;-61
2023/01/27 04:39:15;;;;;;;4.70;2.60;;;;;;;17.69;51.87;100657.53;5071650;28;21015;-61
2023/01/27 04:41:40;;;;;;;3.83;2.60;;;;;;;17.72;51.70;100659.66;5066316;28;20270;-61
2023/01/27 04:44:06;;;;;;;5.23;2.93;;;;;;;17.71;51.65;100660.84;5049491;28;20164;-61
2023/01/27 04:46:32;;;;;;;5.00;2.87;;;;;;;17.74;51.57;100657.25;5049265;28;20202;-61
2023/01/27 04:48:57;;;;;;;4.33;2.60;;;;;;;17.72;51.37;100651.09;5061095;28;20571;-61
2023/01/27 04:51:23;;;;;;;5.13;2.73;;;;;;;17.75;51.38;100660.97;5068969;28;20654;-61
2023/01/27 04:53:48;;;;;;;4.00;2.37;;;;;;;17.72;51.61;100658.81;5065651;28;20183;-61
2023/01/27 04:56:20;;;;;;;6.20;2.70;;;;;;;17.73;51.52;100663.34;5048605;28;20550;-61
2023/01/27 04:58:45;;;;;;;3.60;2.40;;;;;;;17.75;51.71;100656.06;5049555;28;20168;-61
2023/01/27 05:01:11;;;;;;;5.00;3.03;;;;;;;17.71;51.68;100655.13;5062550;28;20539;-61
2023/01/27 05:03:36;;;;;;;5.57;3.17;;;;;;;17.68;52.07;100655.88;5075916;28;20162;-61
2023/01/27 05:06:03;;;;;;;4.27;2.80;;;;;;;17.72;51.75;100656.81;5075157;28;20298;-61
2023/01/27 05:08:29;;;;;;;4.20;2.50;;;;;;;17.71;51.80;100657.97;5068010;28;20269;-61
2023/01/27 05:10:54;;;;;;;4.80;2.77;;;;;;;17.71;51.94;100666.56;5070045;28;20417;-61
2023/01/27 05:13:20;;;;;;;4.00;2.70;;;;;;;17.73;51.66;100666.19;5052283;28;20250;-61
2023/01/27 05:15:46;;;;;;;5.83;2.43;;;;;;;17.70;51.54;100664.91;5048402;28;20260;-61
2023/01/27 05:18:12;;;;;;;4.07;2.43;;;;;;;17.69;51.73;100660.38;5061693;28;20545;-61
2023/01/27 05:20:37;;;;;;;3.90;2.10;;;;;;;17.70;52.12;100658.38;5068739;28;20498;-61
2023/01/27 05:25:47;;;;;;;3.17;2.37;;;;;;;17.69;52.39;100668.13;5053172;28;20162;-61
2023/01/27 05:28:12;;;;;;;4.33;2.50;;;;;;;17.70;51.52;100662.03;5067884;28;20927;-61
2023/01/27 05:30:38;;;;;;;4.40;2.83;;;;;;;17.74;51.57;100659.28;5050147;28;20262;-62
2023/01/27 05:33:03;;;;;;;3.93;2.40;;;;;;;17.72;51.61;100667.41;5048412;28;20172;-61
2023/01/27 05:35:31;;;;;;;5.37;3.00;;;;;;;17.70;51.83;100673.47;5056797;28;20180;-61
2023/01/27 05:37:57;;;;;;;3.60;2.47;;;;;;;17.69;51.72;100662.41;5044462;28;20797;-61
2023/01/27 05:40:22;;;;;;;4.50;2.87;;;;;;;17.70;51.83;100670.59;5051661;28;20432;-61
2023/01/27 05:42:50;;;;;;;4.73;2.37;;;;;;;17.69;51.76;100674.66;5054230;28;20234;-61
2023/01/27 05:45:16;;;;;;;4.87;2.50;;;;;;;17.73;51.59;100675.59;5064522;28;20619;-61
2023/01/27 05:47:41;;;;;;;5.87;2.83;;;;;;;17.70;51.33;100676.31;5067980;28;20469;-61
2023/01/27 05:50:07;;;;;;;4.30;2.63;;;;;;;17.73;51.57;100686.19;5071200;28;20237;-61
2023/01/27 05:52:32;;;;;;;3.90;2.67;;;;;;;17.74;51.63;100691.53;5069997;28;20187;-61
2023/01/27 05:54:58;;;;;;;3.67;2.23;;;;;;;17.73;51.52;100695.59;5062005;28;20430;-61
2023/01/27 05:57:23;;;;;;;5.20;2.63;;;;;;;17.75;51.60;100700.94;5053009;28;20180;-61
2023/01/27 05:59:49;;;;;;;3.40;2.30;;;;;;;17.79;51.65;100696.97;5061158;28;20634;-62
2023/01/27 06:02:14;;;;;;;4.17;2.67;;;;;;;17.77;51.14;100698.53;5067578;28;20190;-61
2023/01/27 06:04:40;;;;;;;5.10;2.70;;;;;;;17.73;51.57;100697.59;5088443;28;20182;-61
2023/01/27 06:07:05;;;;;;;4.10;2.63;;;;;;;17.77;51.58;100690.81;5092200;28;20198;-61
2023/01/27 06:09:30;;;;;;;5.23;2.47;;;;;;;17.76;51.80;100689.13;5074782;28;20171;-61
2023/01/27 06:11:56;;;;;;;3.70;2.50;;;;;;;17.81;51.20;100693.75;5052648;28;20215;-61
2023/01/27 06:14:22;;;;;;;3.97;2.73;;;;;;;17.76;51.69;100691.97;5052856;28;20183;-61
2023/01/27 06:16:48;;;;;;;4.50;3.00;;;;;;;17.72;51.61;100690.25;5086546;28;20187;-60
2023/01/27 06:19:13;;;;;;;4.00;2.67;;;;;;;17.70;51.69;100695.50;5092672;28;20539;-61
2023/01/27 06:21:39;;;;;;;3.20;2.20;;;;;;;17.69;51.73;100691.81;5068039;28;20450;-61
2023/01/27 06:24:04;;;;;;;3.40;2.40;;;;;;;17.72;51.55;100691.09;5052361;28;20188;-61
2023/01/27 06:26:30;;;;;;;3.50;2.57;;;;;;;17.74;51.60;100694.38;5053309;28;20199;-61
2023/01/27 06:28:56;;;;;;;4.73;2.50;;;;;;;17.74;51.52;100693.53;5052539;28;20195;-61
2023/01/27 06:31:22;;;;;;;3.70;2.33;;;;;;;17.72;51.73;100688.22;5052007;28;20211;-61
2023/01/27 06:33:47;;;;;;;3.60;2.43;;;;;;;17.73;51.32;100689.03;5020090;28;20414;-61
2023/01/27 06:36:14;;;;;;;4.37;2.53;;;;;;;17.75;51.18;100696.03;5079589;28;20728;-61
2023/01/27 06:38:40;;;;;;;3.60;2.37;;;;;;;17.74;51.60;100690.69;5071249;28;20664;-60
2023/01/27 06:41:05;;;;;;;4.43;2.70;;;;;;;17.74;51.84;100694.38;5070922;28;20568;-61
2023/01/27 06:43:31;;;;;;;3.43;2.40;;;;;;;17.75;51.58;100701.75;5056340;28;20196;-61
2023/01/27 06:45:56;;;;;;;3.53;2.43;;;;;;;17.75;51.46;100706.66;5051321;28;20253;-61
2023/01/27 06:48:22;;;;;;;4.50;2.73;;;;;;;17.72;51.71;100713.09;5045180;28;20184;-61
2023/01/27 06:50:48;;;;;;;3.90;2.53;;;;;;;17.75;51.23;100713.19;5038821;28;20357;-61
2023/01/27 06:53:13;;;;;;;3.53;2.20;;;;;;;17.73;51.70;100712.72;5071503;28;20159;-60
2023/01/27 06:55:40;;;;;;;3.90;2.47;;;;;;;17.73;51.46;100714.72;5071068;28;20164;-60
2023/01/27 06:58:12;;;;;;;3.30;2.30;;;;;;;17.68;51.95;100718.69;5058950;28;20624;-60
2023/01/27 07:00:38;;;;;;;5.40;3.03;;;;;;;17.71;51.64;100717.13;5050959;28;20813;-61
2023/01/27 07:03:03;;;;;;;3.27;2.00;;;;;;;17.76;51.67;100716.88;5066018;28;20438;-61
2023/01/27 07:05:29;;;;;;;3.40;2.27;;;;;;;17.70;51.69;100722.00;5090016;28;20438;-60
2023/01/27 07:07:54;;;;;;;3.60;2.03;;;;;;;17.74;51.85;100719.25;5090319;28;20206;-60
2023/01/27 07:10:20;;;;;;;3.83;2.53;;;;;;;17.70;51.66;100724.06;5084315;28;20178;-60
2023/01/27 07:12:45;;;;;;;4.27;2.47;;;;;;;17.70;51.69;100727.72;5057562;28;20250;-60
2023/01/27 07:15:11;;;;;;;3.40;2.47;;;;;;;17.72;51.41;100728.19;5059366;28;20914;-60
2023/01/27 07:17:36;;;;;;;3.33;2.33;;;;;;;17.71;51.72;100732.22;5064944;28;20734;-60
2023/01/27 07:20:02;;;;;;;3.77;2.30;;;;;;;17.76;51.51;100734.00;5063478;28;20182;-60
2023/01/27 07:22:27;;;;;;;3.47;2.37;;;;;;;17.74;51.21;100737.22;5066640;28;20175;-60
2023/01/27 07:24:54;;;;;;;3.27;2.10;;;;;;;17.80;51.30;100737.81;5069428;28;20630;-60
2023/01/27 07:27:21;;;;;;;4.00;2.60;;;;;;;17.80;51.37;100738.59;5066003;28;20540;-60
2023/01/27 07:29:46;;;;;;;5.80;2.63;;;;;;;17.74;51.79;100745.78;5052067;28;20429;-60
2023/01/27 07:32:11;;;;;;;3.50;2.40;;;;;;;17.81;51.46;100745.97;5069885;28;20413;-60
2023/01/27 07:34:37;;;;;;;4.20;2.30;;;;;;;17.75;51.47;100740.91;5077738;28;20171;-60
2023/01/27 07:37:04;;;;;;;4.97;3.60;;;;;;;17.60;49.33;100753.94;5067163;28;20838;-60
2023/01/27 07:39:29;;;;;;;13.20;9.87;;;;;;;17.09;47.17;100751.94;5062430;28;20194;-60
2023/01/27 07:41:56;;;;;;;18.20;11.00;;;;;;;16.95;45.40;100751.50;5062659;28;20449;-59
2023/01/27 07:44:21;;;;;;;17.03;12.00;;;;;;;17.63;44.39;100761.78;5039221;28;20186;-61
2023/01/27 07:46:47;;;;;;;22.80;13.33;;;;;;;17.90;44.63;100757.25;5067642;28;20491;-60
2023/01/27 07:49:12;;;;;;;23.60;11.33;;;;;;;17.96;43.33;100770.06;5073315;28;20196;-60
2023/01/27 07:51:38;;;;;;;28.17;11.30;;;;;;;18.20;41.93;100759.31;5062746;28;20530;-60
2023/01/27 07:54:04;;;;;;;14.23;8.73;;;;;;;18.54;41.42;100766.34;5059198;28;20180;-61
2023/01/27 07:56:31;;;;;;;13.03;8.60;;;;;;;18.71;41.17;100763.94;5039148;28;20236;-60
2023/01/27 07:58:57;;;;;;;11.13;7.73;;;;;;;18.71;41.20;100763.94;5068269;28;21065;-61
2023/01/27 08:01:22;;;;;;;12.83;7.73;;;;;;;18.94;41.67;100762.06;5053675;28;20514;-61
2023/01/27 08:03:47;;;;;;;15.70;8.73;;;;;;;18.85;43.08;100775.72;5025117;28;20701;-61
2023/01/27 08:06:13;;;;;;;13.27;7.97;;;;;;;18.51;43.50;100775.69;5048110;28;20160;-61
2023/01/27 08:08:38;;;;;;;10.07;6.30;;;;;;;18.61;42.98;100775.94;5054502;28;20194;-61
2023/01/27 08:11:07;;;;;;;12.43;6.93;;;;;;;18.95;42.87;100775.16;5061407;28;20207;-61
2023/01/27 08:13:33;;;;;;;9.77;6.10;;;;;;;18.98;43.06;100774.44;5048603;28;20314;-61
2023/01/27 08:15:58;;;;;;;9.43;5.83;;;;;;;18.96;42.88;100768.22;5044352;28;20445;-61
2023/01/27 08:18:25;;;;;;;9.00;5.60;;;;;;;18.77;43.40;100779.59;5067711;28;20518;-61
2023/01/27 08:20:51;;;;;;;8.13;5.00;;;;;;;18.39;44.43;100788.03;5072762;28;20178;-61
2023/01/27 08:23:18;;;;;;;10.00;5.30;;;;;;;18.29;45.09;100779.97;5067966;28;20500;-61
2023/01/27 08:25:51;;;;;;;10.77;4.80;;;;;;;18.31;45.25;100788.19;5066595;28;20440;-61
2023/01/27 08:28:17;;;;;;;9.63;4.90;;;;;;;18.25;45.42;100789.63;5046228;28;20510;-61
2023/01/27 08:30:42;;;;;;;11.37;4.93;;;;;;;18.16;45.71;100786.94;5056114;28;20436;-61
2023/01/27 08:33:08;;;;;;;10.10;6.23;;;;;;;18.00;44.10;100788.97;5068048;28;20425;-62
2023/01/27 08:35:34;;;;;;;12.53;5.40;;;;;;;17.87;43.70;100784.53;5053900;28;20180;-61
2023/01/27 08:37:59;;;;;;;14.37;7.53;;;;;;;17.83;42.21;100795.00;5058469;28;20574;-61
2023/01/27 08:40:25;;;;;;;13.90;9.20;;;;;;;17.73;39.93;100794.69;5066687;28;20449;-61
2023/01/27 08:42:50;;;;;;;13.20;9.33;;;;;;;17.67;40.47;100801.84;5050292;28;20229;-61
2023/01/27 08:45:16;;;;;;;12.53;7.93;;;;;;;17.70;39.89;100793.41;5048419;28;20160;-61
2023/01/27 08:47:41;;;;;;;12.97;7.73;;;;;;;17.76;41.19;100800.50;5061037;28;20199;-61
2023/01/27 08:50:08;;;;;;;11.27;7.57;;;;;;;17.77;41.84;100802.19;5048025;28;20592;-61
2023/01/27 08:52:33;;;;;;;11.23;7.27;;;;;;;17.83;41.98;100802.75;5052528;28;20186;-61
2023/01/27 08:54:58;;;;;;;13.13;6.37;;;;;;;17.78;42.43;100803.84;5067882;28;20437;-61
2023/01/27 08:57:24;;;;;;;11.50;6.77;;;;;;;17.71;43.00;100803.63;5062607;28;20183;-61
2023/01/27 08:59:49;;;;;;;11.93;6.53;;;;;;;17.73;43.11;100812.66;5048533;28;20890;-61
2023/01/27 09:02:15;;;;;;;10.47;6.30;;;;;;;17.78;43.42;100806.69;5050125;28;20191;-61
2023/01/27 09:04:43;;;;;;;11.37;6.13;;;;;;;17.74;43.63;100810.63;5073827;28;20172;-61
2023/01/27 09:07:08;;;;;;;10.87;5.60;;;;;;;17.79;44.48;100807.50;5065049;28;20310;-61
2023/01/27 09:09:34;;;;;;;17.80;6.27;;;;;;;17.77;44.65;100813.59;5067883;28;20505;-61
2023/01/27 09:11:59;;;;;;;13.23;5.67;;;;;;;17.73;45.41;100806.97;5068030;28;20191;-60
2023/01/27 09:14:25;;;;;;;13.40;5.40;;;;;;;17.75;45.39;100809.47;5071722;28;20245;-61
2023/01/27 09:16:50;;;;;;;8.97;4.77;;;;;;;17.76;45.21;100803.34;5049740;28;20669;-61
2023/01/27 09:19:16;;;;;;;16.30;4.40;;;;;;;17.77;45.58;100807.06;5071914;28;20221;-61
2023/01/27 09:21:41;;;;;;;15.23;5.23;;;;;;;17.81;45.35;100808.00;5069377;28;20197;-61
2023/01/27 09:24:06;;;;;;;12.30;4.47;;;;;;;17.79;45.57;100810.38;5072457;28;20186;-61
2023/01/27 09:26:32;;;;;;;10.67;5.00;;;;;;;17.79;45.92;100807.50;5053524;28;20209;-61
2023/01/27 09:28:57;;;;;;;7.23;4.50;;;;;;;17.72;46.27;100811.00;5068324;28;20207;-60
2023/01/27 09:31:23;;;;;;;10.50;4.50;;;;;;;17.74;46.83;100820.03;5071431;28;20183;-61
2023/01/27 09:33:48;;;;;;;10.83;4.20;;;;;;;17.77;46.26;100813.59;5072343;28;20600;-61
2023/01/27 09:36:17;;;;;;;8.40;4.30;;;;;;;17.74;46.79;100824.91;5071703;28;20213;-61
2023/01/27 09:38:54;;;;;;;9.53;4.50;;;;;;;17.72;46.82;100819.56;5036467;28;20188;-61
2023/01/27 09:41:34;;;;;;;8.53;3.60;;;;;;;17.73;47.05;100818.38;5052051;28;20394;-60
2023/01/27 09:44:37;;;;;;;9.50;4.17;;;;;;;17.79;47.57;100824.66;5072485;28;20439;-61
2023/01/27 09:47:47;;;;;;;12.47;4.20;;;;;;;17.73;47.42;100828.97;5076626;28;20804;-60
2023/01/27 09:50:43;;;;;;;6.50;3.63;;;;;;;17.76;47.53;100822.53;5046540;28;20878;-61
2023/01/27 09:53:14;;;;;;;9.13;4.40;;;;;;;17.74;47.87;100830.63;5061953;28;20463;-60
2023/01/27 09:55:48;;;;;;;6.40;3.53;;;;;;;17.79;47.38;100825.50;5053055;28;20429;-61
2023/01/27 09:58:43;;;;;;;13.53;3.40;;;;;;;17.76;47.62;100817.63;5033649;28;21195;-61
2023/01/27 10:01:27;;;;;;;9.90;4.20;;;;;;;17.78;47.82;100823.84;5044055;28;20442;-60
2023/01/27 10:04:07;;;;;;;6.80;3.63;;;;;;;17.75;47.87;100818.84;5065820;28;20824;-61
2023/01/27 10:06:47;;;;;;;6.83;3.00;;;;;;;17.71;47.90;100820.75;5051512;28;20459;-61
2023/01/27 10:09:48;;;;;;;9.60;3.30;;;;;;;17.79;47.59;100811.22;5032835;28;20885;-60
2023/01/27 10:12:51;;;;;;;5.10;2.93;;;;;;;17.77;48.01;100813.59;5036789;28;20529;-61
2023/01/27 10:15:31;;;;;;;6.23;2.80;;;;;;;17.78;48.30;100809.56;5009406;28;20478;-61
2023/01/27 10:18:15;;;;;;;4.97;3.00;;;;;;;17.82;48.30;100812.50;5070856;28;20414;-61
2023/01/27 10:21:19;;;;;;;7.47;3.43;;;;;;;17.77;48.35;100809.91;5058455;28;20834;-61
2023/01/27 10:24:01;;;;;;;6.63;3.33;;;;;;;17.79;48.56;100814.06;5047340;28;20433;-60
2023/01/27 10:26:34;;;;;;;5.90;3.53;;;;;;;17.76;48.14;100808.25;5053578;28;20460;-61
2023/01/27 10:29:12;;;;;;;5.50;2.90;;;;;;;17.74;48.81;100817.19;5063284;28;20434;-60
2023/01/27 10:31:53;;;;;;;4.50;2.93;;;;;;;17.74;48.85;100813.47;5033701;28;20414;-60
2023/01/27 10:34:31;;;;;;;5.77;3.10;;;;;;;17.77;48.72;100809.91;5063214;28;20408;-60
2023/01/27 10:37:44;;;;;;;5.30;3.13;;;;;;;17.74;49.25;100811.47;5091759;28;20385;-61
2023/01/27 10:40:21;;;;;;;6.20;3.10;;;;;;;17.77;48.95;100802.19;4949733;29;20431;-61
2023/01/27 10:43:10;;;;;;;7.33;2.83;;;;;;;17.77;49.05;100801.34;4929980;29;20443;-61
2023/01/27 10:46:20;;;;;;;7.60;2.97;;;;;;;17.75;48.86;100806.59;5034367;28;20524;-61
2023/01/27 10:48:56;;;;;;;4.30;2.80;;;;;;;17.73;49.24;100812.66;5067868;28;20884;-61
2023/01/27 10:51:25;;;;;;;7.63;3.00;;;;;;;17.71;49.40;100809.31;5026906;28;20765;-61
2023/01/27 10:53:58;;;;;;;6.23;2.70;;;;;;;17.74;49.10;100807.78;5055185;28;20940;-61
2023/01/27 10:56:43;;;;;;;4.60;2.80;;;;;;;17.74;49.44;100810.63;5036924;28;20536;-61
2023/01/27 10:59:45;;;;;;;6.73;3.00;;;;;;;17.80;49.49;100803.47;5033407;28;20772;-61
2023/01/27 11:02:23;;;;;;;5.57;2.90;;;;;;;17.75;49.78;100807.41;5060324;28;20435;-61
2023/01/27 11:04:51;;;;;;;5.13;2.80;;;;;;;17.74;49.22;100802.06;5071241;28;20404;-60
2023/01/27 11:07:20;;;;;;;6.33;3.30;;;;;;;17.74;48.97;100797.19;5050495;28;20560;-61
2023/01/27 11:09:58;;;;;;;5.30;2.70;;;;;;;17.76;49.47;100800.50;5032751;28;20425;-61
2023/01/27 11:12:51;;;;;;;7.20;2.37;;;;;;;17.72;49.25;100791.03;5035430;28;20564;-61
2023/01/27 11:15:34;;;;;;;5.23;3.30;;;;;;;17.71;49.89;100783.63;5046435;28;20466;-61
2023/01/27 11:18:08;;;;;;;7.70;3.00;;;;;;;17.75;49.83;100786.59;5035063;28;20438;-60
2023/01/27 11:20:38;;;;;;;6.93;2.93;;;;;;;17.75;49.43;100787.41;5051388;28;20517;-61
2023/01/27 11:23:20;;;;;;;8.03;3.20;;;;;;;17.77;50.01;100793.63;5036974;28;20527;-60
2023/01/27 11:26:07;;;;;;;6.33;2.60;;;;;;;17.77;49.72;100801.34;5052603;28;21008;-61
2023/01/27 11:28:54;;;;;;;3.80;2.67;;;;;;;17.75;50.03;100807.41;5062591;28;20615;-60
2023/01/27 11:31:41;;;;;;;8.40;3.40;;;;;;;17.83;49.57;100792.16;5049024;28;20742;-60
2023/01/27 11:34:31;;;;;;;5.73;2.90;;;;;;;17.79;49.97;100787.50;5056482;28;20418;-60
2023/01/27 11:36:57;;;;;;;6.03;2.73;;;;;;;17.81;49.55;100782.28;5063103;28;20433;-61
2023/01/27 11:39:22;;;;;;;5.60;3.10;;;;;;;17.77;50.25;100789.91;5049677;28;20487;-60
2023/01/27 11:41:50;;;;;;;5.73;2.73;;;;;;;17.76;49.76;100783.38;5030887;28;20171;-60
2023/01/27 11:44:28;;;;;;;6.23;2.80;;;;;;;17.82;50.00;100779.06;5048353;28;20189;-60
2023/01/27 11:46:54;;;;;;;6.80;2.73;;;;;;;17.75;50.00;100781.72;5051264;28;21324;-60
2023/01/27 11:49:41;;;;;;;8.60;2.97;;;;;;;17.79;49.87;100773.25;5043545;28;20441;-60
2023/01/27 11:52:15;;;;;;;5.17;2.30;;;;;;;17.85;49.44;100781.19;5064690;28;20209;-60
2023/01/27 11:54:51;;;;;;;4.43;2.37;;;;;;;17.78;49.64;100783.84;5069176;28;20489;-60
2023/01/27 11:57:21;;;;;;;5.70;2.60;;;;;;;17.80;49.65;100781.44;5019232;28;20409;-60
2023/01/27 11:59:49;;;;;;;5.33;2.80;;;;;;;17.82;50.22;100787.66;5050909;28;20521;-60
2023/01/27 12:02:18;;;;;;;7.07;2.57;;;;;;;17.79;50.02;100788.38;5049623;28;20425;-60
2023/01/27 12:05:03;;;;;;;6.13;2.50;;;;;;;17.79;50.26;100791.22;5081672;28;20404;-60